Time;durP1;ratioP1;P1;durP2;ratioP2;P2;SDS_P1;SDS_P2;PMS_P1;PMS_P2;Temp;Humidity;BMP_temperature;BMP_pressure;BME280_temperature;BME280_humidity;BME280_pressure;Samples;Min_cycle;Max_cycle;Signal;HPM_P1;HPM_P2
2022/03/21 00:01:17;;;;;;;65.15;37.05;;;5.70;99.90;;;;;;4972314;28;20065;-87
2022/03/21 00:03:42;;;;;;;60.45;36.50;;;5.70;99.90;;;;;;4981223;28;20049;-87
2022/03/21 00:06:08;;;;;;;63.20;35.78;;;5.80;99.90;;;;;;4979888;28;20038;-90
2022/03/21 00:08:34;;;;;;;54.45;32.78;;;5.80;99.90;;;;;;4964797;28;20064;-88
2022/03/21 00:11:00;;;;;;;57.35;33.63;;;5.80;99.90;;;;;;4949494;28;20035;-88
2022/03/21 00:13:27;;;;;;;58.78;33.90;;;5.80;99.90;;;;;;4957955;28;20050;-87
2022/03/21 00:15:54;;;;;;;58.50;34.10;;;5.80;99.90;;;;;;5004650;28;20137;-89
2022/03/21 00:18:19;;;;;;;54.70;32.75;;;5.80;99.90;;;;;;4989050;28;20050;-88
2022/03/21 00:20:49;;;;;;;53.22;31.73;;;5.90;99.90;;;;;;4988494;28;20129;-86
2022/03/21 00:23:15;;;;;;;51.38;30.02;;;5.90;99.90;;;;;;4991656;28;20064;-87
2022/03/21 00:25:41;;;;;;;53.08;30.20;;;5.80;99.90;;;;;;4972350;28;20089;-87
2022/03/21 00:28:08;;;;;;;54.35;31.73;;;5.90;99.90;;;;;;4972159;28;20050;-91
2022/03/21 00:30:39;;;;;;;48.22;30.15;;;5.90;99.90;;;;;;5004973;28;20049;-87
2022/03/21 00:33:06;;;;;;;46.25;28.40;;;5.90;99.90;;;;;;4991466;28;20145;-87
2022/03/21 00:35:32;;;;;;;42.25;25.75;;;6.00;99.90;;;;;;4960149;28;20046;-88
2022/03/21 00:37:59;;;;;;;44.92;27.38;;;6.00;99.90;;;;;;4974520;28;20050;-88
2022/03/21 00:40:25;;;;;;;45.78;26.52;;;6.00;99.90;;;;;;4989011;28;20042;-88
2022/03/21 00:42:53;;;;;;;42.45;25.38;;;6.00;99.90;;;;;;4959560;28;20046;-87
2022/03/21 00:45:21;;;;;;;43.25;24.85;;;6.00;99.90;;;;;;4975626;28;20285;-88
2022/03/21 00:47:49;;;;;;;39.42;24.52;;;6.00;99.90;;;;;;5008398;28;20052;-87
2022/03/21 00:50:16;;;;;;;42.78;24.25;;;5.90;99.90;;;;;;4949488;28;20045;-87
2022/03/21 00:52:46;;;;;;;44.67;24.65;;;5.90;99.90;;;;;;4992504;28;20053;-88
2022/03/21 00:55:13;;;;;;;44.35;24.88;;;6.00;99.90;;;;;;4989150;28;20065;-87
2022/03/21 00:57:42;;;;;;;41.30;23.88;;;5.90;99.90;;;;;;4991119;28;20053;-87
2022/03/21 01:00:14;;;;;;;40.38;23.95;;;5.90;99.90;;;;;;4977147;28;20053;-86
2022/03/21 01:02:41;;;;;;;39.63;23.65;;;6.00;99.90;;;;;;4994895;28;20086;-85
2022/03/21 01:05:07;;;;;;;43.60;23.05;;;6.00;99.90;;;;;;4959838;28;20054;-87
2022/03/21 01:07:34;;;;;;;36.13;22.27;;;6.00;99.90;;;;;;4974713;28;20535;-89
2022/03/21 01:10:00;;;;;;;38.00;21.65;;;6.00;99.90;;;;;;4993403;28;20041;-87
2022/03/21 01:12:27;;;;;;;39.70;23.02;;;6.00;99.90;;;;;;4977209;28;20527;-86
2022/03/21 01:14:53;;;;;;;39.47;22.83;;;6.00;99.90;;;;;;4978270;28;20050;-88
2022/03/21 01:17:18;;;;;;;44.63;22.33;;;6.10;99.90;;;;;;4977844;28;20081;-87
2022/03/21 01:19:44;;;;;;;34.38;21.88;;;6.10;99.90;;;;;;4983560;28;20070;-88
2022/03/21 01:22:10;;;;;;;35.00;21.15;;;6.10;99.90;;;;;;4993531;28;20086;-86
2022/03/21 01:24:38;;;;;;;34.80;20.92;;;6.10;99.90;;;;;;4993876;28;20133;-86
2022/03/21 01:27:04;;;;;;;38.78;20.75;;;6.10;99.90;;;;;;4978227;28;20093;-91
2022/03/21 01:29:30;;;;;;;31.52;20.40;;;6.00;99.90;;;;;;4976100;28;20042;-86
2022/03/21 01:31:56;;;;;;;38.13;20.20;;;6.00;99.90;;;;;;4976947;28;20109;-87
2022/03/21 01:34:22;;;;;;;34.70;21.35;;;6.00;99.90;;;;;;4994588;28;20049;-88
2022/03/21 01:36:48;;;;;;;36.05;19.55;;;6.00;99.90;;;;;;4976012;28;20050;-87
2022/03/21 01:39:14;;;;;;;36.55;21.35;;;6.00;99.90;;;;;;4977148;28;20046;-86
2022/03/21 01:41:39;;;;;;;38.35;21.20;;;5.90;99.90;;;;;;4955396;28;20129;-86
2022/03/21 01:44:08;;;;;;;34.53;19.30;;;5.90;99.90;;;;;;4973646;28;20082;-91
2022/03/21 01:46:35;;;;;;;31.90;19.83;;;5.80;99.90;;;;;;4985238;28;20165;-88
2022/03/21 01:49:03;;;;;;;31.70;18.65;;;5.60;99.90;;;;;;4989767;28;20049;-87
2022/03/21 01:51:31;;;;;;;44.75;23.20;;;5.50;99.90;;;;;;4988968;28;20053;-86
2022/03/21 01:56:45;;;;;;;31.25;17.60;;;5.50;99.90;;;;;;4993730;28;20042;-86
2022/03/21 01:59:12;;;;;;;31.95;17.75;;;5.50;99.90;;;;;;4977547;28;20061;-86
2022/03/21 02:01:40;;;;;;;32.22;17.60;;;5.50;99.90;;;;;;4968253;28;20365;-86
2022/03/21 02:04:06;;;;;;;30.95;16.92;;;5.50;99.90;;;;;;4950071;28;20055;-91
2022/03/21 02:06:32;;;;;;;29.77;17.35;;;5.40;99.90;;;;;;4989188;28;20054;-86
2022/03/21 02:09:04;;;;;;;33.30;17.88;;;5.40;99.90;;;;;;4994394;28;20110;-88
2022/03/21 02:11:30;;;;;;;30.30;17.67;;;5.40;99.90;;;;;;5004910;28;20046;-87
2022/03/21 02:13:58;;;;;;;28.67;17.85;;;5.10;99.90;;;;;;4992230;28;20065;-86
2022/03/21 02:16:26;;;;;;;29.35;16.55;;;5.00;99.90;;;;;;4957125;28;20073;-88
2022/03/21 02:18:52;;;;;;;26.77;15.57;;;4.90;99.90;;;;;;4988896;28;20505;-87
2022/03/21 02:21:52;;;;;;;27.15;15.90;;;4.70;99.90;;;;;;4992529;28;20373;-85
2022/03/21 02:24:49;;;;;;;29.15;16.95;;;4.60;99.90;;;;;;4989341;28;20054;-88
2022/03/21 02:27:17;;;;;;;32.40;17.60;;;4.40;99.90;;;;;;4970469;28;20133;-87
2022/03/21 02:29:44;;;;;;;32.80;17.13;;;4.20;99.90;;;;;;4976528;28;20050;-88
2022/03/21 02:32:10;;;;;;;31.50;18.08;;;4.20;99.90;;;;;;4992694;28;20101;-89
2022/03/21 02:34:37;;;;;;;34.00;18.23;;;4.10;99.90;;;;;;4991969;28;20046;-86
2022/03/21 02:37:04;;;;;;;31.27;16.92;;;4.00;99.90;;;;;;4974854;28;20112;-88
2022/03/21 02:39:30;;;;;;;32.70;18.70;;;3.90;99.90;;;;;;4991581;28;20598;-86
2022/03/21 02:41:57;;;;;;;34.85;19.13;;;3.90;99.90;;;;;;4989869;28;20078;-87
2022/03/21 02:44:23;;;;;;;36.28;17.80;;;3.80;99.90;;;;;;5007345;28;20089;-88
2022/03/21 02:49:27;;;;;;;35.00;18.38;;;3.70;99.90;;;;;;5122441;23;21859;-90
2022/03/21 02:51:59;;;;;;;35.38;19.23;;;3.70;99.90;;;;;;4987549;28;20112;-89
2022/03/21 02:54:26;;;;;;;40.10;19.90;;;3.60;99.90;;;;;;4983037;28;20058;-89
2022/03/21 02:56:55;;;;;;;36.40;20.25;;;3.50;99.90;;;;;;4963454;28;20142;-89
2022/03/21 02:59:24;;;;;;;39.13;20.90;;;3.50;99.90;;;;;;4955883;28;20111;-90
2022/03/21 03:01:55;;;;;;;40.72;21.20;;;3.50;99.90;;;;;;4965355;28;20061;-91
2022/03/21 03:04:32;;;;;;;38.72;21.08;;;3.40;99.90;;;;;;4983567;28;20102;-90
2022/03/21 03:06:57;;;;;;;40.00;20.80;;;3.40;99.90;;;;;;4972049;28;20106;-90
2022/03/21 03:09:24;;;;;;;39.80;21.33;;;3.40;99.90;;;;;;4992443;28;20046;-89
2022/03/21 03:11:55;;;;;;;41.38;21.13;;;3.40;99.90;;;;;;4961510;28;20068;-91
2022/03/21 03:14:21;;;;;;;42.08;21.35;;;3.30;99.90;;;;;;4970680;28;20046;-92
2022/03/21 03:16:47;;;;;;;42.00;22.90;;;3.30;99.90;;;;;;4972114;28;20065;-90
2022/03/21 03:19:16;;;;;;;43.70;22.50;;;3.20;99.90;;;;;;4947345;28;20523;-89
2022/03/21 03:21:46;;;;;;;43.78;22.20;;;3.40;99.90;;;;;;4975409;28;20050;-90
2022/03/21 03:24:12;;;;;;;42.17;23.10;;;3.40;99.90;;;;;;4956845;28;20113;-89
2022/03/21 03:26:38;;;;;;;40.65;21.85;;;3.50;99.90;;;;;;4970514;28;20126;-91
2022/03/21 03:29:06;;;;;;;47.05;22.85;;;3.50;99.90;;;;;;4955363;28;20133;-91
2022/03/21 03:31:36;;;;;;;43.95;22.33;;;3.50;99.90;;;;;;4957219;28;20162;-88
2022/03/21 03:34:06;;;;;;;41.75;21.48;;;3.40;99.90;;;;;;4959475;28;20051;-90
2022/03/21 03:36:34;;;;;;;44.13;21.63;;;3.30;99.90;;;;;;4956770;28;20758;-90
2022/03/21 03:39:00;;;;;;;44.95;22.83;;;3.20;99.90;;;;;;4956221;28;20051;-90
2022/03/21 03:41:27;;;;;;;40.25;22.40;;;3.10;99.90;;;;;;4971167;28;20047;-88
2022/03/21 03:43:56;;;;;;;42.80;22.73;;;3.10;99.90;;;;;;4980624;28;20496;-91
2022/03/21 03:46:25;;;;;;;43.28;22.08;;;3.10;99.90;;;;;;4956798;28;20061;-91
2022/03/21 03:48:54;;;;;;;39.50;21.13;;;3.10;99.90;;;;;;4965467;28;20085;-91
2022/03/21 03:51:19;;;;;;;43.13;22.92;;;2.90;99.90;;;;;;4975605;28;20043;-89
2022/03/21 03:53:45;;;;;;;38.00;20.60;;;2.90;99.90;;;;;;4958092;28;20373;-92
2022/03/21 03:56:21;;;;;;;;;;;;;;;;;;;;;
2022/03/21 03:58:47;;;;;;;;;;;2.60;99.90;;;;;;4996938;28;20050;-91
2022/03/21 04:01:15;;;;;;;39.13;20.20;;;2.50;99.90;;;;;;4977398;28;20013;-91
2022/03/21 04:03:47;;;;;;;43.65;21.92;;;2.50;99.90;;;;;;4956064;28;20061;-89
2022/03/21 04:06:16;;;;;;;38.55;20.20;;;2.40;99.90;;;;;;4956681;28;20055;-91
2022/03/21 04:08:56;;;;;;;40.20;21.08;;;2.40;99.90;;;;;;4955597;28;20054;-91
2022/03/21 04:11:24;;;;;;;42.58;21.20;;;2.30;99.90;;;;;;4973041;28;20538;-92
2022/03/21 04:13:50;;;;;;;40.80;19.48;;;2.20;99.90;;;;;;4961776;28;20078;-91
2022/03/21 04:16:16;;;;;;;41.05;20.77;;;2.10;99.90;;;;;;4964075;28;20082;-89
2022/03/21 04:18:45;;;;;;;39.85;19.23;;;2.10;99.90;;;;;;4978462;28;20515;-91
2022/03/21 04:21:18;;;;;;;35.30;18.80;;;2.00;99.90;;;;;;4970930;28;20731;-91
2022/03/21 04:23:47;;;;;;;38.33;19.15;;;2.00;99.90;;;;;;4958439;28;20049;-89
2022/03/21 04:26:15;;;;;;;39.10;20.20;;;1.70;99.90;;;;;;4971981;28;20050;-90
2022/03/21 04:28:41;;;;;;;36.50;18.98;;;1.70;99.90;;;;;;4965528;28;20042;-89
2022/03/21 04:31:07;;;;;;;37.50;20.15;;;1.70;99.90;;;;;;4967272;28;20047;-89
2022/03/21 04:33:32;;;;;;;41.10;20.45;;;1.70;99.90;;;;;;4960163;28;20056;-90
2022/03/21 04:35:58;;;;;;;41.67;21.08;;;1.80;99.90;;;;;;4973454;28;20097;-88
2022/03/21 04:38:26;;;;;;;48.80;21.73;;;1.70;99.90;;;;;;4983379;28;20042;-88
2022/03/21 04:40:55;;;;;;;45.53;22.05;;;1.60;99.90;;;;;;4939039;28;20042;-90
2022/03/21 04:43:21;;;;;;;40.70;20.67;;;1.60;99.90;;;;;;4956191;28;20043;-90
2022/03/21 04:45:48;;;;;;;44.90;21.23;;;1.50;99.90;;;;;;4974740;28;20552;-91
2022/03/21 04:48:14;;;;;;;44.85;21.30;;;1.50;99.90;;;;;;4972949;28;20055;-91
2022/03/21 04:50:40;;;;;;;42.92;20.98;;;1.40;99.90;;;;;;4941725;28;20046;-91
2022/03/21 04:53:08;;;;;;;40.00;20.42;;;1.50;99.90;;;;;;4953874;28;20039;-93
2022/03/21 04:55:40;;;;;;;47.72;21.35;;;1.30;99.90;;;;;;4969991;28;20070;-89
2022/03/21 04:58:06;;;;;;;42.70;20.83;;;1.20;99.90;;;;;;4957149;28;20097;-90
2022/03/21 05:00:38;;;;;;;45.00;22.20;;;1.20;99.90;;;;;;4974828;28;20063;-89
2022/03/21 05:03:07;;;;;;;41.40;21.67;;;1.20;99.90;;;;;;4959734;28;20050;-91
2022/03/21 05:05:36;;;;;;;40.60;20.60;;;1.20;99.90;;;;;;4954602;28;20515;-91
2022/03/21 05:08:03;;;;;;;41.60;21.30;;;1.20;99.90;;;;;;4969032;28;20058;-88
2022/03/21 05:10:30;;;;;;;38.42;20.88;;;1.10;99.90;;;;;;4976587;28;20714;-89
2022/03/21 05:12:57;;;;;;;43.13;20.80;;;0.90;99.90;;;;;;4955357;28;20429;-93
2022/03/21 05:15:25;;;;;;;47.38;21.85;;;0.90;99.90;;;;;;4958271;28;20338;-88
2022/03/21 05:17:52;;;;;;;45.53;19.98;;;0.90;99.90;;;;;;4991485;28;20069;-89
2022/03/21 05:20:18;;;;;;;45.13;22.48;;;0.90;99.90;;;;;;4966029;28;20058;-90
2022/03/21 05:30:57;;;;;;;48.13;22.45;;;1.00;99.90;;;;;;4966621;28;20050;-91
2022/03/21 05:31:07;;;;;;;43.47;22.00;;;0.80;99.90;;;;;;4978110;28;20046;-92
2022/03/21 05:36:19;;;;;;;43.08;20.83;;;0.70;99.90;;;;;;4976356;28;20137;-91
2022/03/21 05:38:45;;;;;;;46.30;21.48;;;0.60;99.90;;;;;;4977759;28;20089;-91
2022/03/21 05:41:14;;;;;;;46.78;22.40;;;0.60;99.90;;;;;;4969320;28;20045;-90
2022/03/21 05:43:39;;;;;;;44.80;21.38;;;0.60;99.90;;;;;;4968654;28;20050;-91
2022/03/21 05:46:06;;;;;;;39.17;20.27;;;0.60;99.90;;;;;;4973139;28;20066;-91
2022/03/21 05:48:53;;;;;;;44.70;21.13;;;0.50;99.90;;;;;;4987934;28;20145;-91
2022/03/21 05:51:28;;;;;;;44.25;20.77;;;0.50;99.90;;;;;;4967421;28;20059;-92
2022/03/21 05:53:55;;;;;;;37.75;19.75;;;0.40;99.90;;;;;;4968517;28;20126;-90
2022/03/21 05:56:21;;;;;;;35.95;18.58;;;0.40;99.90;;;;;;4981732;28;20054;-91
2022/03/21 05:58:47;;;;;;;42.13;18.55;;;0.40;99.90;;;;;;4971141;28;20126;-91
2022/03/21 06:01:18;;;;;;;39.55;20.05;;;0.40;99.90;;;;;;4985533;28;20466;-89
2022/03/21 06:03:44;;;;;;;39.75;20.70;;;0.40;99.90;;;;;;4970338;28;20315;-92
2022/03/21 06:06:10;;;;;;;36.72;19.33;;;0.40;99.90;;;;;;4953626;28;20110;-91
2022/03/21 06:08:36;;;;;;;45.78;21.60;;;0.40;99.90;;;;;;4964691;28;20049;-92
2022/03/21 06:11:04;;;;;;;37.65;19.05;;;0.40;99.90;;;;;;4965863;28;20050;-91
2022/03/21 06:13:34;;;;;;;39.75;20.58;;;0.50;99.90;;;;;;4965713;28;20043;-91
2022/03/21 06:16:03;;;;;;;41.85;20.85;;;0.60;99.90;;;;;;4925414;29;20058;-89
2022/03/21 06:18:36;;;;;;;49.53;21.67;;;0.70;99.90;;;;;;4972726;28;20085;-87
2022/03/21 06:21:04;;;;;;;49.35;23.02;;;0.80;99.90;;;;;;4982567;28;20122;-91
2022/03/21 06:23:30;;;;;;;41.47;21.30;;;0.90;99.90;;;;;;4961329;28;20054;-91
2022/03/21 06:25:58;;;;;;;37.97;21.63;;;1.00;99.90;;;;;;4955910;28;20058;-92
2022/03/21 06:28:28;;;;;;;35.10;19.33;;;1.20;99.90;;;;;;4968208;28;20118;-94
2022/03/21 06:30:53;;;;;;;36.85;19.52;;;1.30;99.90;;;;;;4982052;28;20058;-89
2022/03/21 06:33:22;;;;;;;31.25;18.00;;;1.40;99.90;;;;;;4958848;28;20277;-90
2022/03/21 06:35:48;;;;;;;29.25;17.60;;;1.50;99.90;;;;;;4966300;28;20066;-90
2022/03/21 06:38:14;;;;;;;31.40;17.20;;;1.70;99.90;;;;;;4965703;28;20082;-92
2022/03/21 06:40:40;;;;;;;33.00;18.15;;;1.70;99.90;;;;;;4955765;28;20051;-90
2022/03/21 06:43:07;;;;;;;37.67;18.70;;;1.70;99.90;;;;;;4960713;28;20112;-88
2022/03/21 06:45:33;;;;;;;30.17;17.20;;;1.80;99.90;;;;;;4942006;28;20071;-90
2022/03/21 06:47:58;;;;;;;34.20;18.10;;;1.70;99.90;;;;;;4983702;28;20058;-91
2022/03/21 06:50:25;;;;;;;31.13;16.73;;;1.70;99.90;;;;;;4955872;28;20062;-90
2022/03/21 06:52:52;;;;;;;30.05;16.52;;;1.60;99.90;;;;;;4959122;28;20038;-91
2022/03/21 06:55:22;;;;;;;30.48;17.27;;;1.80;99.90;;;;;;4954318;28;20050;-88
2022/03/21 06:57:48;;;;;;;33.08;18.58;;;1.80;99.90;;;;;;4972920;28;20047;-90
2022/03/21 07:00:14;;;;;;;32.03;17.35;;;2.00;99.90;;;;;;4970371;28;20078;-88
2022/03/21 07:02:40;;;;;;;27.48;17.42;;;2.00;99.90;;;;;;4936797;29;20054;-89
2022/03/21 07:05:07;;;;;;;35.65;17.58;;;2.20;99.90;;;;;;4960429;28;20105;-91
2022/03/21 07:07:34;;;;;;;29.17;16.95;;;2.30;99.90;;;;;;4955932;28;20142;-89
2022/03/21 07:10:00;;;;;;;34.42;18.08;;;2.30;99.90;;;;;;4956237;28;20137;-89
2022/03/21 07:12:26;;;;;;;36.13;19.50;;;2.40;99.90;;;;;;4940474;28;20051;-91
2022/03/21 07:14:51;;;;;;;33.00;18.92;;;2.50;99.90;;;;;;4971238;28;20053;-91
2022/03/21 07:17:21;;;;;;;39.22;21.23;;;2.60;99.90;;;;;;4956375;28;20050;-91
2022/03/21 07:19:47;;;;;;;43.92;22.38;;;2.70;99.90;;;;;;4972177;28;20082;-91
2022/03/21 07:22:14;;;;;;;47.33;22.77;;;2.80;99.90;;;;;;4955889;28;20047;-88
2022/03/21 07:24:40;;;;;;;47.00;22.75;;;3.00;99.90;;;;;;4955696;28;20054;-90
2022/03/21 07:27:06;;;;;;;51.70;25.45;;;3.10;99.90;;;;;;4956322;28;20058;-90
2022/03/21 07:29:31;;;;;;;43.55;22.45;;;3.20;99.90;;;;;;4972030;28;20469;-88
2022/03/21 07:31:57;;;;;;;45.08;23.13;;;3.30;99.90;;;;;;4960978;28;20058;-91
2022/03/21 07:34:23;;;;;;;42.28;23.20;;;3.40;99.90;;;;;;4942553;28;20129;-89
2022/03/21 07:36:50;;;;;;;48.42;22.92;;;3.50;99.90;;;;;;4961413;28;20073;-88
2022/03/21 07:39:16;;;;;;;44.95;23.60;;;3.60;99.90;;;;;;4958007;28;20049;-87
2022/03/21 07:41:42;;;;;;;45.75;24.10;;;3.70;99.90;;;;;;4952923;28;20042;-88
2022/03/21 07:44:08;;;;;;;44.60;23.77;;;3.90;99.90;;;;;;4988246;28;20124;-87
2022/03/21 07:49:18;;;;;;;39.20;22.33;;;4.20;99.90;;;;;;4961920;28;20051;-91
2022/03/21 07:51:43;;;;;;;44.17;22.70;;;4.40;99.90;;;;;;4972273;28;20050;-91
2022/03/21 07:54:11;;;;;;;42.72;20.55;;;4.60;99.90;;;;;;4970659;28;20053;-91
2022/03/21 07:56:37;;;;;;;37.58;21.27;;;4.70;99.90;;;;;;4981287;28;20077;-92
2022/03/21 07:59:04;;;;;;;40.50;22.95;;;4.80;99.90;;;;;;4970539;28;20504;-90
2022/03/21 08:01:30;;;;;;;38.08;20.60;;;4.80;99.90;;;;;;4955390;28;20690;-90
2022/03/21 08:04:00;;;;;;;42.33;21.27;;;4.90;99.90;;;;;;4972680;28;20039;-91
2022/03/21 08:06:26;;;;;;;38.67;20.63;;;5.00;99.90;;;;;;4963202;28;20039;-91
2022/03/21 08:08:53;;;;;;;41.47;22.02;;;5.10;99.90;;;;;;4965143;28;20167;-92
2022/03/21 08:11:20;;;;;;;35.92;20.88;;;5.10;99.90;;;;;;4985159;28;20776;-91
2022/03/21 08:13:49;;;;;;;36.92;21.50;;;5.30;99.90;;;;;;4960512;28;20054;-91
2022/03/21 08:16:19;;;;;;;37.05;20.90;;;5.30;99.90;;;;;;4963424;28;20055;-91
2022/03/21 08:18:48;;;;;;;41.53;21.95;;;5.40;99.90;;;;;;4974288;28;20492;-90
2022/03/21 08:21:13;;;;;;;36.90;20.40;;;5.50;99.90;;;;;;4970842;28;20062;-89
2022/03/21 08:23:39;;;;;;;35.08;20.88;;;5.60;99.90;;;;;;4953191;28;20046;-90
2022/03/21 08:26:08;;;;;;;36.80;19.95;;;5.70;99.90;;;;;;4953981;28;20047;-91
2022/03/21 08:28:33;;;;;;;34.70;20.30;;;5.70;99.90;;;;;;4962393;28;20062;-89
2022/03/21 08:30:59;;;;;;;33.92;20.98;;;5.80;99.90;;;;;;4938351;28;20231;-94
2022/03/21 08:33:25;;;;;;;39.53;21.17;;;5.90;99.90;;;;;;4981366;28;20058;-90
2022/03/21 08:35:51;;;;;;;34.33;20.55;;;6.00;99.90;;;;;;4989205;28;20096;-89
2022/03/21 08:38:17;;;;;;;29.75;19.17;;;6.10;99.90;;;;;;4954875;28;20065;-90
2022/03/21 08:40:42;;;;;;;35.47;21.23;;;6.20;99.90;;;;;;4959655;28;20062;-89
2022/03/21 08:43:11;;;;;;;35.17;19.80;;;6.30;99.90;;;;;;4967487;28;20184;-90
2022/03/21 08:45:44;;;;;;;32.72;19.73;;;6.40;99.90;;;;;;4960216;28;20070;-90
2022/03/21 08:48:09;;;;;;;32.95;19.80;;;6.60;99.90;;;;;;4959511;28;20077;-92
2022/03/21 08:50:37;;;;;;;30.95;18.92;;;6.80;99.90;;;;;;4967866;28;20055;-89
2022/03/21 08:53:03;;;;;;;32.85;19.63;;;7.00;99.90;;;;;;4965442;28;20068;-89
2022/03/21 08:55:29;;;;;;;35.55;19.52;;;7.10;99.90;;;;;;4945478;28;20126;-91
2022/03/21 08:57:55;;;;;;;33.65;20.65;;;7.20;99.90;;;;;;4983298;28;20058;-90
2022/03/21 09:00:21;;;;;;;32.53;19.60;;;7.20;99.90;;;;;;4948446;28;20085;-90
2022/03/21 09:02:52;;;;;;;30.08;18.55;;;7.30;99.90;;;;;;4972476;28;20427;-90
2022/03/21 09:05:20;;;;;;;30.40;17.38;;;7.50;99.90;;;;;;4978525;28;20046;-89
2022/03/21 09:07:48;;;;;;;30.55;18.95;;;7.70;99.90;;;;;;4956791;28;20108;-90
2022/03/21 09:10:18;;;;;;;30.88;18.20;;;7.80;99.90;;;;;;4975721;28;20485;-90
2022/03/21 09:12:44;;;;;;;31.77;17.60;;;7.90;99.90;;;;;;4944489;28;20051;-89
2022/03/21 09:15:12;;;;;;;32.58;19.60;;;8.00;99.90;;;;;;4968811;28;20058;-91
2022/03/21 09:17:41;;;;;;;31.13;18.88;;;8.10;99.90;;;;;;4959146;28;20088;-90
2022/03/21 09:20:07;;;;;;;31.85;17.73;;;8.20;99.90;;;;;;4982970;28;20481;-90
2022/03/21 09:22:33;;;;;;;28.75;17.85;;;8.40;99.90;;;;;;4952690;28;20061;-91
2022/03/21 09:24:59;;;;;;;31.55;18.58;;;8.50;99.90;;;;;;4956847;28;20043;-91
2022/03/21 09:27:28;;;;;;;31.55;17.83;;;8.70;99.90;;;;;;4957814;28;20062;-91
2022/03/21 09:29:54;;;;;;;28.92;17.08;;;9.00;99.90;;;;;;4946996;29;20054;-88
2022/03/21 09:32:20;;;;;;;29.77;17.80;;;9.20;99.90;;;;;;4958840;28;20129;-91
2022/03/21 09:34:55;;;;;;;29.05;18.27;;;9.50;99.90;;;;;;4963781;28;20436;-87
2022/03/21 09:37:21;;;;;;;29.15;18.25;;;9.60;99.90;;;;;;4957420;28;20050;-88
2022/03/21 09:39:47;;;;;;;31.45;18.70;;;9.80;99.90;;;;;;4954234;28;20117;-88
2022/03/21 09:42:14;;;;;;;31.23;18.05;;;10.00;99.90;;;;;;4958680;28;20419;-88
2022/03/21 09:44:40;;;;;;;33.63;19.38;;;10.30;98.90;;;;;;4981545;28;20043;-86
2022/03/21 09:49:56;;;;;;;31.70;18.77;;;10.80;96.80;;;;;;4952651;28;20420;-88
2022/03/21 09:52:22;;;;;;;31.63;18.52;;;11.20;94.80;;;;;;4955936;28;20109;-89
2022/03/21 09:54:51;;;;;;;30.20;18.20;;;11.50;93.40;;;;;;4957520;28;20050;-88
2022/03/21 09:57:18;;;;;;;27.13;18.95;;;11.90;92.40;;;;;;4959961;28;20049;-88
2022/03/21 09:59:44;;;;;;;27.10;17.35;;;12.20;91.50;;;;;;4957837;28;20125;-87
2022/03/21 10:02:21;;;;;;;29.65;18.58;;;12.50;89.10;;;;;;4959852;28;20050;-89
2022/03/21 10:04:56;;;;;;;28.90;17.85;;;12.70;88.50;;;;;;4956132;28;20058;-89
2022/03/21 10:07:28;;;;;;;27.55;19.30;;;12.90;87.50;;;;;;4960605;28;20050;-88
2022/03/21 10:10:16;;;;;;;28.25;18.17;;;13.30;83.70;;;;;;4984092;28;20043;-88
2022/03/21 10:12:42;;;;;;;28.10;17.83;;;13.80;76.50;;;;;;4954399;28;20125;-88
2022/03/21 10:15:10;;;;;;;28.15;18.52;;;14.50;78.60;;;;;;4965792;28;20081;-89
2022/03/21 10:17:36;;;;;;;27.48;19.05;;;15.30;75.10;;;;;;4969445;28;20043;-89
2022/03/21 10:20:04;;;;;;;25.27;17.95;;;16.10;72.50;;;;;;4977210;28;20053;-88
2022/03/21 10:22:33;;;;;;;28.77;18.95;;;16.90;67.70;;;;;;4996253;28;20526;-91
2022/03/21 10:25:07;;;;;;;25.35;17.13;;;17.80;62.40;;;;;;4989383;28;20117;-92
2022/03/21 10:27:39;;;;;;;31.75;18.65;;;18.60;60.80;;;;;;4964741;28;20051;-93
2022/03/21 10:30:08;;;;;;;26.73;16.92;;;19.30;55.50;;;;;;4955076;29;20058;-91
2022/03/21 10:32:37;;;;;;;31.40;18.92;;;20.00;53.70;;;;;;4957173;28;20089;-92
2022/03/21 10:35:23;;;;;;;24.98;16.85;;;20.50;50.90;;;;;;4969744;28;20506;-92
2022/03/21 10:37:58;;;;;;;26.40;18.08;;;21.10;51.20;;;;;;4970898;28;20054;-90
2022/03/21 10:40:44;;;;;;;26.97;18.17;;;21.60;48.30;;;;;;4988227;28;20116;-90
2022/03/21 10:43:13;;;;;;;25.88;18.02;;;22.10;47.60;;;;;;4958216;28;20306;-90
2022/03/21 10:45:42;;;;;;;24.75;18.00;;;22.40;46.10;;;;;;4957128;28;20071;-91
2022/03/21 10:48:16;;;;;;;24.65;18.35;;;22.60;45.10;;;;;;4984705;28;20527;-91
2022/03/21 10:50:54;;;;;;;23.20;18.02;;;23.00;43.30;;;;;;4991421;28;20082;-90
2022/03/21 10:53:22;;;;;;;27.92;18.58;;;23.20;43.20;;;;;;4947810;28;20050;-90
2022/03/21 10:56:04;;;;;;;24.77;17.98;;;23.50;41.30;;;;;;4975598;28;20100;-90
2022/03/21 10:58:48;;;;;;;23.70;17.92;;;23.80;41.30;;;;;;4960034;28;20671;-90
2022/03/21 11:01:27;;;;;;;26.80;18.58;;;24.20;40.90;;;;;;4975348;28;20469;-91
2022/03/21 11:03:57;;;;;;;24.88;17.15;;;24.50;39.90;;;;;;4975188;28;20108;-91
2022/03/21 11:06:23;;;;;;;23.45;18.17;;;24.80;39.30;;;;;;4988690;28;20573;-90
2022/03/21 11:08:52;;;;;;;23.45;17.92;;;24.90;38.70;;;;;;4956045;28;20054;-90
2022/03/21 11:11:18;;;;;;;23.88;17.83;;;25.10;38.20;;;;;;4955305;28;20560;-88
2022/03/21 11:13:46;;;;;;;26.65;17.60;;;25.30;37.20;;;;;;4956700;28;20047;-90
2022/03/21 11:16:16;;;;;;;24.10;17.45;;;25.40;36.60;;;;;;4979086;28;20054;-91
2022/03/21 11:18:47;;;;;;;23.35;17.92;;;25.80;36.50;;;;;;4962378;28;20042;-90
2022/03/21 11:21:13;;;;;;;21.45;16.45;;;26.10;35.00;;;;;;4980343;28;20121;-90
2022/03/21 11:23:40;;;;;;;22.95;18.00;;;26.30;34.10;;;;;;4958584;28;20499;-89
2022/03/21 11:26:37;;;;;;;24.15;18.67;;;26.40;32.80;;;;;;4940983;28;20061;-91
2022/03/21 11:29:45;;;;;;;23.48;17.65;;;26.20;33.90;;;;;;4960447;28;20089;-91
2022/03/21 11:32:17;;;;;;;22.67;17.83;;;26.20;34.10;;;;;;4967600;28;20066;-90
2022/03/21 11:35:05;;;;;;;20.73;18.52;;;26.50;32.50;;;;;;4987824;28;20046;-91
2022/03/21 11:37:34;;;;;;;26.05;17.20;;;26.80;32.90;;;;;;4965538;28;20081;-90
2022/03/21 11:40:26;;;;;;;22.35;18.05;;;27.10;31.20;;;;;;4955559;28;20046;-92
2022/03/21 11:43:30;;;;;;;23.67;16.70;;;27.10;31.50;;;;;;4973538;28;20078;-89
2022/03/21 11:45:57;;;;;;;24.80;17.25;;;27.00;31.40;;;;;;4899512;29;20062;-92
2022/03/21 11:48:23;;;;;;;23.52;16.67;;;27.20;31.40;;;;;;4931084;28;20437;-92
2022/03/21 11:51:00;;;;;;;22.55;16.95;;;27.60;30.20;;;;;;4938006;28;20101;-91
2022/03/21 11:53:32;;;;;;;20.33;16.42;;;27.40;27.00;;;;;;4953599;28;20065;-92
2022/03/21 11:55:59;;;;;;;19.95;16.85;;;26.90;28.60;;;;;;4970514;28;20053;-93
2022/03/21 11:58:27;;;;;;;22.63;16.38;;;26.20;29.40;;;;;;4956372;28;20453;-90
2022/03/21 12:01:17;;;;;;;21.20;17.15;;;25.40;29.70;;;;;;4954890;28;20064;-92
2022/03/21 12:03:43;;;;;;;23.38;16.88;;;25.50;29.20;;;;;;4955080;28;20137;-91
2022/03/21 12:06:36;;;;;;;23.42;17.50;;;25.80;30.20;;;;;;4970980;28;20126;-91
2022/03/21 12:09:12;;;;;;;21.15;16.15;;;26.50;30.30;;;;;;4937537;28;20051;-90
2022/03/21 12:11:38;;;;;;;20.08;16.00;;;27.10;29.10;;;;;;4967210;28;20058;-94
2022/03/21 12:14:22;;;;;;;24.13;17.27;;;27.70;28.10;;;;;;4971640;28;20454;-91
2022/03/21 12:17:00;;;;;;;22.42;15.63;;;27.80;26.90;;;;;;4968547;28;20101;-92
2022/03/21 12:19:40;;;;;;;21.95;16.17;;;27.80;27.70;;;;;;4969355;28;20050;-89
2022/03/21 12:22:33;;;;;;;23.45;15.98;;;27.70;27.40;;;;;;4939706;28;20050;-90
2022/03/21 12:25:10;;;;;;;20.60;15.60;;;28.00;28.20;;;;;;4934671;28;20066;-91
2022/03/21 12:27:40;;;;;;;21.95;15.85;;;28.10;26.70;;;;;;4973548;28;20050;-91
2022/03/21 12:30:35;;;;;;;22.50;15.73;;;27.80;27.30;;;;;;4961358;28;20047;-89
2022/03/21 12:33:27;;;;;;;22.67;16.30;;;27.50;26.40;;;;;;4966408;28;20546;-90
2022/03/21 12:35:56;;;;;;;22.83;16.02;;;27.60;26.60;;;;;;4975149;28;20082;-90
2022/03/21 12:38:32;;;;;;;22.10;16.58;;;27.20;26.50;;;;;;4975906;28;20039;-90
2022/03/21 12:41:03;;;;;;;19.63;15.80;;;26.70;27.30;;;;;;4943464;29;20051;-90
2022/03/21 12:43:32;;;;;;;22.65;15.73;;;26.80;27.00;;;;;;4959443;28;20058;-92
2022/03/21 12:46:07;;;;;;;21.50;16.10;;;27.20;27.20;;;;;;4959257;28;20054;-91
2022/03/21 12:48:38;;;;;;;24.13;16.70;;;27.20;27.30;;;;;;4968240;28;20544;-90
2022/03/21 12:51:06;;;;;;;22.77;14.63;;;27.60;27.30;;;;;;4939783;29;20081;-91
2022/03/21 12:53:36;;;;;;;25.30;16.42;;;28.00;26.40;;;;;;4909682;28;20051;-91
2022/03/21 12:56:04;;;;;;;20.02;15.45;;;28.00;25.60;;;;;;4932952;29;20047;-90
2022/03/21 12:58:32;;;;;;;17.98;15.50;;;27.80;25.90;;;;;;4940041;29;20055;-90
2022/03/21 13:01:00;;;;;;;24.35;16.48;;;27.50;26.50;;;;;;4907552;28;20101;-90
2022/03/21 13:03:30;;;;;;;19.73;15.57;;;27.40;26.30;;;;;;4926366;29;20043;-90
2022/03/21 13:11:46;;;;;;;19.27;14.65;;;27.80;25.80;;;;;;4953439;28;20117;-91